Time;durP1;ratioP1;P1;durP2;ratioP2;P2;SDS_P1;SDS_P2;PMS_P1;PMS_P2;Temp;Humidity;BMP_temperature;BMP_pressure;BME280_temperature;BME280_humidity;BME280_pressure;Samples;Min_cycle;Max_cycle;Signal;HPM_P1;HPM_P2
2021/06/04 00:01:35;;;;;;;;;;;15.30;96.00;;;;;;5089769;28;19927;-71
2021/06/04 00:04:01;;;;;;;;;;;15.30;96.00;;;;;;5080462;28;20313;-71
2021/06/04 00:06:26;;;;;;;;;;;15.30;95.80;;;;;;5076007;28;19923;-70
2021/06/04 00:08:52;;;;;;;;;;;15.20;96.00;;;;;;5079733;28;19912;-71
2021/06/04 00:11:32;;;;;;;;;;;15.20;95.80;;;;;;5079251;28;20303;-71
2021/06/04 00:14:17;;;;;;;;;;;15.20;95.80;;;;;;5078709;28;19927;-70
2021/06/04 00:16:48;;;;;;;;;;;15.30;95.80;;;;;;5082155;28;19924;-70
2021/06/04 00:19:15;;;;;;;;;;;15.40;95.70;;;;;;5082868;28;19916;-71
2021/06/04 00:21:43;;;;;;;;;;;15.40;95.50;;;;;;5082858;28;19939;-70
2021/06/04 00:24:09;;;;;;;;;;;15.30;95.70;;;;;;5076869;28;19928;-70
2021/06/04 00:26:36;;;;;;;;;;;15.30;95.70;;;;;;5074970;28;19921;-71
2021/06/04 00:29:03;;;;;;;;;;;15.20;95.60;;;;;;5079931;28;20006;-71
2021/06/04 00:31:28;;;;;;;;;;;15.10;95.70;;;;;;5083166;28;19920;-70
2021/06/04 00:33:54;;;;;;;;;;;15.10;95.70;;;;;;5085830;28;19994;-70
2021/06/04 00:36:19;;;;;;;;;;;15.00;95.80;;;;;;5080897;28;19927;-71
2021/06/04 00:38:45;;;;;;;;;;;15.00;95.80;;;;;;5080640;28;20254;-71
2021/06/04 00:41:19;;;;;;;;;;;14.90;96.00;;;;;;5079398;28;20293;-71
2021/06/04 00:43:45;;;;;;;;;;;14.80;96.00;;;;;;5060980;28;20348;-70
2021/06/04 00:46:11;;;;;;;;;;;14.80;96.10;;;;;;5083898;28;19975;-71
2021/06/04 00:48:37;;;;;;;;;;;14.60;96.00;;;;;;5081020;28;19920;-71
2021/06/04 00:51:14;;;;;;;;;;;14.50;96.10;;;;;;5078038;28;19927;-71
2021/06/04 00:53:40;;;;;;;;;;;14.30;96.20;;;;;;5081918;28;20370;-71
2021/06/04 00:56:06;;;;;;;;;;;14.10;96.20;;;;;;5083786;28;19912;-70
2021/06/04 00:58:33;;;;;;;;;;;14.00;96.30;;;;;;5082955;28;19916;-71
2021/06/04 01:00:59;;;;;;;;;;;14.00;96.40;;;;;;5088941;28;20206;-70
2021/06/04 01:03:27;;;;;;;;;;;13.90;96.60;;;;;;5077259;28;20642;-70
2021/06/04 01:05:59;;;;;;;;;;;13.90;96.60;;;;;;5081606;28;19932;-70
2021/06/04 01:08:44;;;;;;;;;;;13.80;96.50;;;;;;5081969;28;19918;-71
2021/06/04 01:11:10;;;;;;;;;;;13.80;96.50;;;;;;5078797;28;19920;-70
2021/06/04 01:13:58;;;;;;;;;;;13.80;96.70;;;;;;5079907;28;19916;-70
2021/06/04 01:16:30;;;;;;;;;;;13.80;96.70;;;;;;5079131;28;19924;-71
2021/06/04 01:19:15;;;;;;;;;;;13.80;96.60;;;;;;5078004;28;19916;-70
2021/06/04 01:22:07;;;;;;;;;;;13.80;96.70;;;;;;5058011;28;19935;-70
2021/06/04 01:24:36;;;;;;;;;;;13.80;96.70;;;;;;5074494;28;20309;-71
2021/06/04 01:27:05;;;;;;;;;;;13.90;96.80;;;;;;5077693;28;19927;-71
2021/06/04 01:29:36;;;;;;;;;;;14.00;96.80;;;;;;5075105;28;19978;-70
2021/06/04 01:32:23;;;;;;;;;;;14.20;96.80;;;;;;5059693;28;20096;-70
2021/06/04 01:34:51;;;;;;;;;;;14.30;96.60;;;;;;5076643;28;19965;-70
2021/06/04 01:37:22;;;;;;;;;;;14.30;96.60;;;;;;5073679;28;19912;-70
2021/06/04 01:39:49;;;;;;;;;;;14.30;96.60;;;;;;5061045;28;19917;-71
2021/06/04 01:42:17;;;;;;;;;;;14.40;96.50;;;;;;5081378;28;19916;-71
2021/06/04 01:44:50;;;;;;;;;;;14.30;96.60;;;;;;5085228;28;20074;-71
2021/06/04 01:47:18;;;;;;;;;;;14.40;96.60;;;;;;5102356;28;20002;-70
2021/06/04 01:49:46;;;;;;;;;;;14.40;96.60;;;;;;5070864;28;19919;-71
2021/06/04 01:52:16;;;;;;;;;;;14.40;96.60;;;;;;5075862;28;19920;-70
2021/06/04 01:54:49;;;;;;;;;;;14.40;96.50;;;;;;5079558;28;19935;-71
2021/06/04 01:57:21;;;;;;;;;;;14.40;96.50;;;;;;5079501;28;19927;-71
2021/06/04 01:59:52;;;;;;;;;;;14.50;96.40;;;;;;5081524;28;19925;-71
2021/06/04 02:02:22;;;;;;;;;;;14.40;96.30;;;;;;5088094;28;19919;-71
2021/06/04 02:04:50;;;;;;;;;;;14.50;96.30;;;;;;5081866;28;20352;-70
2021/06/04 02:07:19;;;;;;;;;;;14.50;96.30;;;;;;5075864;28;20007;-71
2021/06/04 02:09:45;;;;;;;;;;;14.50;96.30;;;;;;5078842;28;19967;-71
2021/06/04 02:12:11;;;;;;;;;;;14.50;96.30;;;;;;5076692;28;19920;-70
2021/06/04 02:14:50;;;;;;;;;;;14.50;96.30;;;;;;5079010;28;19912;-70
2021/06/04 02:17:35;;;;;;;;;;;14.40;96.40;;;;;;5075896;28;20377;-70
2021/06/04 02:20:00;;;;;;;;;;;14.40;96.40;;;;;;5073737;28;19960;-70
2021/06/04 02:22:29;;;;;;;;;;;14.30;96.50;;;;;;5074592;28;19962;-68
2021/06/04 02:24:58;;;;;;;;;;;14.20;96.50;;;;;;5080068;28;19939;-70
2021/06/04 02:27:36;;;;;;;;;;;14.20;96.50;;;;;;5079758;28;19935;-71
2021/06/04 02:30:13;;;;;;;;;;;14.20;96.50;;;;;;5078509;28;20007;-70
2021/06/04 02:32:42;;;;;;;;;;;14.30;96.40;;;;;;5081618;28;19997;-70
2021/06/04 02:35:08;;;;;;;;;;;14.30;96.30;;;;;;5077322;28;19952;-70
2021/06/04 02:37:39;;;;;;;;;;;14.30;96.30;;;;;;5061757;28;19952;-70
2021/06/04 02:40:10;;;;;;;;;;;14.20;96.50;;;;;;5076439;28;19990;-70
2021/06/04 02:42:39;;;;;;;;;;;14.20;96.50;;;;;;5083837;28;19946;-70
2021/06/04 02:45:23;;;;;;;;;;;14.30;96.50;;;;;;5080223;28;19916;-69
2021/06/04 02:47:52;;;;;;;;;;;14.30;96.60;;;;;;5083554;28;19916;-70
2021/06/04 02:50:30;;;;;;;;;;;14.30;96.50;;;;;;5080773;28;19917;-69
2021/06/04 02:53:11;;;;;;;;;;;14.30;96.50;;;;;;5078724;28;19931;-69
2021/06/04 02:55:37;;;;;;;;;;;14.20;96.50;;;;;;5080682;28;19921;-70
2021/06/04 02:58:03;;;;;;;;;;;14.30;96.60;;;;;;5083811;28;19927;-69
2021/06/04 03:00:37;;;;;;;;;;;14.30;96.70;;;;;;5068608;28;19920;-70
2021/06/04 03:03:02;;;;;;;;;;;14.40;96.50;;;;;;5092648;28;19927;-70
2021/06/04 03:05:30;;;;;;;;;;;14.50;96.30;;;;;;5079571;28;19912;-70
2021/06/04 03:07:56;;;;;;;;;;;14.60;96.40;;;;;;5094737;28;20359;-69
2021/06/04 03:10:28;;;;;;;;;;;14.60;96.10;;;;;;5093750;28;19951;-70
2021/06/04 03:12:54;;;;;;;;;;;14.60;96.30;;;;;;5092879;28;19920;-69
2021/06/04 03:15:27;;;;;;;;;;;14.60;96.30;;;;;;5091391;28;19931;-70
2021/06/04 03:17:53;;;;;;;;;;;14.70;96.40;;;;;;5096593;28;19937;-68
2021/06/04 03:20:21;;;;;;;;;;;14.70;96.30;;;;;;5098315;28;19920;-68
2021/06/04 03:22:47;;;;;;;;;;;14.70;96.30;;;;;;5067417;28;19912;-68
2021/06/04 03:25:38;;;;;;;;;;;14.70;96.20;;;;;;5092311;28;20260;-69
2021/06/04 03:28:06;;;;;;;;;;;14.70;96.20;;;;;;5087892;28;19966;-70
2021/06/04 03:30:33;;;;;;;;;;;14.70;96.20;;;;;;5093225;28;19972;-70
2021/06/04 03:32:58;;;;;;;;;;;14.70;96.20;;;;;;5092056;28;19999;-70
2021/06/04 03:35:26;;;;;;;;;;;14.70;96.30;;;;;;5093005;28;20419;-69
2021/06/04 03:37:51;;;;;;;;;;;14.70;96.10;;;;;;5091819;28;19961;-70
2021/06/04 03:40:18;;;;;;;;;;;14.70;96.10;;;;;;5093896;28;20118;-70
2021/06/04 03:42:44;;;;;;;;;;;14.70;96.10;;;;;;5091470;28;20305;-69
2021/06/04 03:45:13;;;;;;;;;;;14.70;96.20;;;;;;5092887;28;19920;-70
2021/06/04 03:47:38;;;;;;;;;;;14.60;96.20;;;;;;5090494;28;19993;-69
2021/06/04 03:50:06;;;;;;;;;;;14.70;96.40;;;;;;5093716;28;20089;-70
2021/06/04 03:52:32;;;;;;;;;;;14.80;96.30;;;;;;5090593;28;20312;-70
2021/06/04 03:54:58;;;;;;;;;;;14.90;96.40;;;;;;5090594;28;19931;-69
2021/06/04 03:57:26;;;;;;;;;;;15.00;96.00;;;;;;5091501;28;19912;-69
2021/06/04 03:59:51;;;;;;;;;;;15.10;96.00;;;;;;5091475;28;19924;-69
2021/06/04 04:02:19;;;;;;;;;;;15.20;96.00;;;;;;5073342;28;19912;-70
2021/06/04 04:04:44;;;;;;;;;;;15.20;96.10;;;;;;5092750;28;19920;-70
2021/06/04 04:07:11;;;;;;;;;;;15.30;96.00;;;;;;5092839;28;20331;-69
2021/06/04 04:09:36;;;;;;;;;;;15.30;95.90;;;;;;5096647;28;20037;-69
2021/06/04 04:12:02;;;;;;;;;;;15.40;95.80;;;;;;5089600;28;19959;-70
2021/06/04 04:14:28;;;;;;;;;;;15.40;95.80;;;;;;5091011;28;19955;-69
2021/06/04 04:16:54;;;;;;;;;;;15.40;95.70;;;;;;5091644;28;21230;-70
2021/06/04 04:19:21;;;;;;;;;;;15.50;95.70;;;;;;5092148;28;20317;-70
2021/06/04 04:21:48;;;;;;;;;;;15.60;95.60;;;;;;5090576;28;19919;-69
2021/06/04 04:24:17;;;;;;;;;;;15.60;95.50;;;;;;5073883;28;19924;-69
2021/06/04 04:26:42;;;;;;;;;;;15.60;95.70;;;;;;5092733;28;19918;-70
2021/06/04 04:29:09;;;;;;;;;;;15.60;95.80;;;;;;5092293;28;19911;-69
2021/06/04 04:31:37;;;;;;;;;;;15.50;95.80;;;;;;5092312;28;19981;-70
2021/06/04 04:34:05;;;;;;;;;;;15.50;95.90;;;;;;5090960;28;20313;-70
2021/06/04 04:36:51;;;;;;;;;;;15.40;95.90;;;;;;5088781;28;20321;-70
2021/06/04 04:39:18;;;;;;;;;;;15.40;96.00;;;;;;5091793;28;19977;-69
2021/06/04 04:41:44;;;;;;;;;;;15.30;96.10;;;;;;5091542;28;19931;-69
2021/06/04 04:44:10;;;;;;;;;;;15.20;96.00;;;;;;5091406;28;19927;-70
2021/06/04 04:46:36;;;;;;;;;;;15.10;96.20;;;;;;5090977;28;19920;-70
2021/06/04 04:49:05;;;;;;;;;;;15.20;96.20;;;;;;5074924;28;19921;-70
2021/06/04 04:51:31;;;;;;;;;;;15.30;96.20;;;;;;5090890;28;20321;-70
2021/06/04 04:53:57;;;;;;;;;;;15.40;96.20;;;;;;5091683;28;19965;-70
2021/06/04 04:56:23;;;;;;;;;;;15.50;96.40;;;;;;5091405;28;19923;-70
2021/06/04 04:58:48;;;;;;;;;;;15.50;96.00;;;;;;5073600;28;19920;-70
2021/06/04 05:01:14;;;;;;;;;;;15.50;96.00;;;;;;5088761;28;20506;-69
2021/06/04 05:03:40;;;;;;;;;;;15.50;95.90;;;;;;5091035;28;19955;-69
2021/06/04 05:06:07;;;;;;;;;;;15.70;96.10;;;;;;5070608;28;19963;-70
2021/06/04 05:08:32;;;;;;;;;;;15.80;96.10;;;;;;5091239;28;19919;-69
2021/06/04 05:10:58;;;;;;;;;;;15.80;95.80;;;;;;5090716;28;19912;-69
2021/06/04 05:13:24;;;;;;;;;;;15.70;95.80;;;;;;5093752;28;19927;-69
2021/06/04 05:15:49;;;;;;;;;;;15.70;95.80;;;;;;5091046;28;19920;-69
2021/06/04 05:18:15;;;;;;;;;;;15.70;95.70;;;;;;5090642;28;19923;-69
2021/06/04 05:20:42;;;;;;;;;;;15.70;95.70;;;;;;5090647;28;19928;-70
2021/06/04 05:23:07;;;;;;;;;;;15.80;95.50;;;;;;5088813;28;20016;-70
2021/06/04 05:25:35;;;;;;;;;;;15.90;95.60;;;;;;5091165;28;19924;-70
2021/06/04 05:28:00;;;;;;;;;;;16.10;95.50;;;;;;5090062;28;20003;-69
2021/06/04 05:30:30;;;;;;;;;;;16.30;95.20;;;;;;5072932;28;20348;-69
2021/06/04 05:32:56;;;;;;;;;;;16.40;95.20;;;;;;5071129;28;19920;-69
2021/06/04 05:35:22;;;;;;;;;;;16.60;95.10;;;;;;5072762;28;19926;-70
2021/06/04 05:37:48;;;;;;;;;;;16.70;94.90;;;;;;5089312;28;19912;-70
2021/06/04 05:40:18;;;;;;;;;;;16.80;94.90;;;;;;5091364;28;19931;-69
2021/06/04 05:42:44;;;;;;;;;;;17.00;95.00;;;;;;5089457;28;19920;-69
2021/06/04 05:45:11;;;;;;;;;;;17.20;95.00;;;;;;5091950;28;19948;-70
2021/06/04 05:47:36;;;;;;;;;;;17.40;94.90;;;;;;5090565;28;19981;-70
2021/06/04 05:50:03;;;;;;;;;;;17.60;94.80;;;;;;5093270;28;19913;-70
2021/06/04 05:52:31;;;;;;;;;;;17.80;94.90;;;;;;5070516;28;19999;-70
2021/06/04 05:54:57;;;;;;;;;;;18.10;94.70;;;;;;5087774;28;20244;-70
2021/06/04 05:57:23;;;;;;;;;;;18.50;94.40;;;;;;5089899;28;19919;-70
2021/06/04 05:59:49;;;;;;;;;;;18.80;93.80;;;;;;5073319;28;19924;-70
2021/06/04 06:02:15;;;;;;;;;;;19.10;92.60;;;;;;5090453;28;20288;-70
2021/06/04 06:04:41;;;;;;;;;;;19.50;92.40;;;;;;5088779;28;19959;-70
2021/06/04 06:07:06;;;;;;;;;;;20.30;91.00;;;;;;5091396;28;19919;-70
2021/06/04 06:09:32;;;;;;;;;;;21.20;88.10;;;;;;5087945;28;19912;-70
2021/06/04 06:11:57;;;;;;;;;;;21.90;86.50;;;;;;5071760;28;19920;-71
2021/06/04 06:14:23;;;;;;;;;;;22.20;85.50;;;;;;5092191;28;19942;-71
2021/06/04 06:16:48;;;;;;;;;;;22.60;84.80;;;;;;5091700;28;19959;-70
2021/06/04 06:19:15;;;;;;;;;;;23.00;81.50;;;;;;5091585;28;19948;-70
2021/06/04 06:21:43;;;;;;;;;;;23.10;79.40;;;;;;5089694;28;20308;-71
2021/06/04 06:24:09;;;;;;;;;;;23.20;76.50;;;;;;5089768;28;19919;-70
2021/06/04 06:26:35;;;;;;;;;;;23.20;76.10;;;;;;5089923;28;19923;-70
2021/06/04 06:29:02;;;;;;;;;;;23.20;75.70;;;;;;5090090;28;19927;-70
2021/06/04 06:31:30;;;;;;;;;;;23.10;76.40;;;;;;5089283;28;20619;-71
2021/06/04 06:33:56;;;;;;;;;;;23.00;78.60;;;;;;5090621;28;19920;-71
2021/06/04 06:36:26;;;;;;;;;;;22.90;79.40;;;;;;5088870;28;20332;-71
2021/06/04 06:38:56;;;;;;;;;;;22.90;80.30;;;;;;5090292;28;20343;-70
2021/06/04 06:41:22;;;;;;;;;;;22.70;81.00;;;;;;5090178;28;19923;-70
2021/06/04 06:43:48;;;;;;;;;;;22.60;78.90;;;;;;5087968;28;19924;-70
2021/06/04 06:46:15;;;;;;;;;;;22.60;81.30;;;;;;5088376;28;19919;-71
2021/06/04 06:48:40;;;;;;;;;;;22.70;81.90;;;;;;5090128;28;19965;-71
2021/06/04 06:51:06;;;;;;;;;;;23.00;79.20;;;;;;5068555;28;19912;-70
2021/06/04 06:53:32;;;;;;;;;;;23.20;80.10;;;;;;5089625;28;19912;-71
2021/06/04 06:56:00;;;;;;;;;;;23.20;77.60;;;;;;5089515;28;20137;-70
2021/06/04 06:58:26;;;;;;;;;;;23.00;77.60;;;;;;5089182;28;20030;-71
2021/06/04 07:00:54;;;;;;;;;;;23.00;77.30;;;;;;5088635;28;20038;-71
2021/06/04 07:03:26;;;;;;;;;;;22.90;77.70;;;;;;5090068;28;19919;-71
2021/06/04 07:05:52;;;;;;;;;;;22.90;76.30;;;;;;5088428;28;20372;-70
2021/06/04 07:08:18;;;;;;;;;;;22.70;79.20;;;;;;5086443;28;19912;-70
2021/06/04 07:10:43;;;;;;;;;;;22.90;79.30;;;;;;5089826;28;19980;-71
2021/06/04 07:13:10;;;;;;;;;;;23.60;78.30;;;;;;5089644;28;20279;-70
2021/06/04 07:15:36;;;;;;;;;;;24.10;76.90;;;;;;5086018;28;19916;-71
2021/06/04 07:18:02;;;;;;;;;;;24.70;72.70;;;;;;5065905;28;19965;-71
2021/06/04 07:20:29;;;;;;;;;;;25.00;73.00;;;;;;5085702;28;20022;-71
2021/06/04 07:22:55;;;;;;;;;;;25.10;74.40;;;;;;5088249;28;20238;-71
2021/06/04 07:25:21;;;;;;;;;;;25.80;71.40;;;;;;5086058;28;19920;-70
2021/06/04 07:27:47;;;;;;;;;;;26.70;69.70;;;;;;5086130;28;20385;-71
2021/06/04 07:30:15;;;;;;;;;;;27.30;67.80;;;;;;5090273;28;19916;-71
2021/06/04 07:32:41;;;;;;;;;;;27.70;67.80;;;;;;5089220;28;19969;-71
2021/06/04 07:35:08;;;;;;;;;;;27.80;68.80;;;;;;5088502;28;19981;-71
2021/06/04 07:37:34;;;;;;;;;;;28.30;66.90;;;;;;5084102;28;19916;-71
2021/06/04 07:39:59;;;;;;;;;;;28.10;66.20;;;;;;5082924;28;19949;-71
2021/06/04 07:42:25;;;;;;;;;;;27.30;66.00;;;;;;5080283;28;20045;-71
2021/06/04 07:44:50;;;;;;;;;;;27.10;66.90;;;;;;5079475;28;20046;-71
2021/06/04 07:47:16;;;;;;;;;;;27.30;67.20;;;;;;5079850;28;19912;-71
2021/06/04 07:49:41;;;;;;;;;;;28.20;65.90;;;;;;5080239;28;20228;-71
2021/06/04 07:52:09;;;;;;;;;;;28.80;64.40;;;;;;5082162;28;19912;-71
2021/06/04 07:54:35;;;;;;;;;;;28.90;64.40;;;;;;5095676;28;19916;-71
2021/06/04 07:57:01;;;;;;;;;;;28.60;65.60;;;;;;5089230;28;20022;-71
2021/06/04 07:59:29;;;;;;;;;;;28.90;64.50;;;;;;5081138;28;19931;-71
2021/06/04 08:01:55;;;;;;;;;;;29.10;63.30;;;;;;5082704;28;19916;-70
2021/06/04 08:04:21;;;;;;;;;;;28.80;63.30;;;;;;5063229;28;19936;-71
2021/06/04 08:06:47;;;;;;;;;;;28.50;63.80;;;;;;5080967;28;19921;-71
2021/06/04 08:09:14;;;;;;;;;;;28.70;65.10;;;;;;5081845;28;19971;-71
2021/06/04 08:11:43;;;;;;;;;;;29.00;64.20;;;;;;5080630;28;20021;-71
2021/06/04 08:14:10;;;;;;;;;;;28.10;64.50;;;;;;5079055;28;19931;-72
2021/06/04 08:16:37;;;;;;;;;;;27.00;67.60;;;;;;5083026;28;19916;-70
2021/06/04 08:19:03;;;;;;;;;;;25.60;70.70;;;;;;5086258;28;19912;-72
2021/06/04 08:21:31;;;;;;;;;;;25.40;72.70;;;;;;5094742;28;19920;-70
2021/06/04 08:23:57;;;;;;;;;;;25.20;72.60;;;;;;5081822;28;19919;-70
2021/06/04 08:26:25;;;;;;;;;;;25.20;73.30;;;;;;5083264;28;20232;-70
2021/06/04 08:28:50;;;;;;;;;;;25.20;73.50;;;;;;5083937;28;19912;-70
2021/06/04 08:31:17;;;;;;;;;;;25.40;74.30;;;;;;5068273;28;19913;-70
2021/06/04 08:33:43;;;;;;;;;;;25.40;73.50;;;;;;5090278;28;19912;-71
2021/06/04 08:36:11;;;;;;;;;;;25.60;74.10;;;;;;5089921;28;19916;-70
2021/06/04 08:38:40;;;;;;;;;;;25.70;74.30;;;;;;5085401;28;19920;-70
2021/06/04 08:41:13;;;;;;;;;;;26.10;73.60;;;;;;5090098;28;20090;-70
2021/06/04 08:43:57;;;;;;;;;;;27.00;72.70;;;;;;5085784;28;19917;-69
2021/06/04 08:46:55;;;;;;;;;;;27.90;70.60;;;;;;5090489;28;20256;-70
2021/06/04 08:49:23;;;;;;;;;;;28.00;65.70;;;;;;5071576;28;19912;-69
2021/06/04 08:52:12;;;;;;;;;;;28.30;65.70;;;;;;5089914;28;19920;-70
2021/06/04 08:54:37;;;;;;;;;;;28.70;65.30;;;;;;5090340;28;19920;-71
2021/06/04 08:57:03;;;;;;;;;;;29.30;64.30;;;;;;5091705;28;21264;-70
2021/06/04 08:59:31;;;;;;;;;;;29.50;64.80;;;;;;5090439;28;19966;-70
2021/06/04 09:02:20;;;;;;;;;;;29.50;63.00;;;;;;5090868;28;19951;-70
2021/06/04 09:04:53;;;;;;;;;;;29.30;63.20;;;;;;5091421;28;20045;-70
2021/06/04 09:07:22;;;;;;;;;;;29.60;63.90;;;;;;5090111;28;19920;-70
2021/06/04 09:10:06;;;;;;;;;;;28.80;65.70;;;;;;5090639;28;19919;-70
2021/06/04 09:12:41;;;;;;;;;;;27.80;67.70;;;;;;5091805;28;19924;-70
2021/06/04 09:15:08;;;;;;;;;;;28.90;63.50;;;;;;5088800;28;20062;-70
2021/06/04 09:17:43;;;;;;;;;;;29.00;65.30;;;;;;5088187;28;19939;-71
2021/06/04 09:20:19;;;;;;;;;;;29.30;64.20;;;;;;5089640;28;20017;-70
2021/06/04 09:22:46;;;;;;;;;;;29.90;63.80;;;;;;5075006;28;20341;-69
2021/06/04 09:25:13;;;;;;;;;;;30.10;62.70;;;;;;5092102;28;20014;-69
2021/06/04 09:27:39;;;;;;;;;;;29.30;62.50;;;;;;5090767;28;19912;-70
2021/06/04 09:30:21;;;;;;;;;;;28.90;64.30;;;;;;5090604;28;20073;-70
2021/06/04 09:33:13;;;;;;;;;;;28.90;64.20;;;;;;5090211;28;19922;-70
2021/06/04 09:35:52;;;;;;;;;;;29.20;62.90;;;;;;5086884;28;20300;-70
2021/06/04 09:38:24;;;;;;;;;;;29.60;62.10;;;;;;5089504;28;19920;-71
2021/06/04 09:40:49;;;;;;;;;;;29.50;62.00;;;;;;5087390;28;19923;-70
2021/06/04 09:43:19;;;;;;;;;;;28.60;61.90;;;;;;5090410;28;19920;-70
2021/06/04 09:45:52;;;;;;;;;;;28.80;62.60;;;;;;5089598;28;19970;-70
2021/06/04 09:48:33;;;;;;;;;;;28.50;62.30;;;;;;5072864;28;20300;-71
2021/06/04 09:51:10;;;;;;;;;;;28.60;63.80;;;;;;5089191;28;19931;-70
2021/06/04 09:53:35;;;;;;;;;;;29.90;61.90;;;;;;5090494;28;19958;-70
2021/06/04 09:56:07;;;;;;;;;;;30.50;60.40;;;;;;5087056;28;19924;-70
2021/06/04 09:58:49;;;;;;;;;;;30.10;63.00;;;;;;5089156;28;19920;-71
2021/06/04 10:01:16;;;;;;;;;;;29.60;62.40;;;;;;5087130;28;20568;-70
2021/06/04 10:03:41;;;;;;;;;;;28.50;64.00;;;;;;5088715;28;20312;-70
2021/06/04 10:06:07;;;;;;;;;;;27.30;66.80;;;;;;5087860;28;20036;-70
2021/06/04 10:08:42;;;;;;;;;;;26.20;69.50;;;;;;5086342;28;19912;-70
2021/06/04 10:11:12;;;;;;;;;;;25.20;72.60;;;;;;5089617;28;19912;-71
2021/06/04 10:13:43;;;;;;;;;;;24.50;78.70;;;;;;5089780;28;19916;-72
2021/06/04 10:19:23;;;;;;;;;;;22.10;87.40;;;;;;5088792;28;19912;-71
2021/06/04 10:21:50;;;;;;;;;;;21.40;91.70;;;;;;5089370;28;19930;-69
2021/06/04 10:24:41;;;;;;;;;;;21.20;90.90;;;;;;5071301;28;19958;-71
2021/06/04 10:27:10;;;;;;;;;;;21.00;91.70;;;;;;5086459;28;19912;-70
2021/06/04 10:29:36;;;;;;;;;;;20.90;91.70;;;;;;5090270;28;19920;-70
2021/06/04 10:32:07;;;;;;;;;;;20.80;92.20;;;;;;5089342;28;20348;-70
2021/06/04 10:34:42;;;;;;;;;;;20.70;91.70;;;;;;5074076;28;20360;-70
2021/06/04 10:37:11;;;;;;;;;;;20.70;92.20;;;;;;5085443;28;19919;-70
2021/06/04 10:39:50;;;;;;;;;;;20.90;91.20;;;;;;5090167;28;20205;-70
2021/06/04 10:42:25;;;;;;;;;;;21.00;92.10;;;;;;5090648;28;20263;-70
2021/06/04 10:44:56;;;;;;;;;;;21.30;90.40;;;;;;5090208;28;19966;-70
2021/06/04 10:47:31;;;;;;;;;;;21.30;88.20;;;;;;5071567;28;19912;-70
2021/06/04 10:50:03;;;;;;;;;;;21.50;88.20;;;;;;5072779;28;20308;-70
2021/06/04 10:52:48;;;;;;;;;;;21.80;88.30;;;;;;5088295;28;20002;-71
2021/06/04 10:55:16;;;;;;;;;;;22.10;87.60;;;;;;5075311;28;19938;-71
2021/06/04 10:57:48;;;;;;;;;;;22.30;86.00;;;;;;5085080;28;19966;-69
2021/06/04 11:00:16;;;;;;;;;;;22.40;86.00;;;;;;5089094;28;20040;-71
2021/06/04 11:02:45;;;;;;;;;;;22.40;85.40;;;;;;5096768;28;20315;-69
2021/06/04 11:05:17;;;;;;;;;;;22.60;85.50;;;;;;5095729;28;20294;-71
2021/06/04 11:07:42;;;;;;;;;;;22.70;85.60;;;;;;5076217;28;19916;-70
2021/06/04 11:10:20;;;;;;;;;;;23.00;80.80;;;;;;5080167;28;19912;-71
2021/06/04 11:12:58;;;;;;;;;;;22.90;82.60;;;;;;5079166;28;19919;-71
2021/06/04 11:15:27;;;;;;;;;;;23.00;80.50;;;;;;5083573;28;19916;-70
2021/06/04 11:18:28;;;;;;;;;;;23.00;82.20;;;;;;5087423;28;19912;-70
2021/06/04 11:20:55;;;;;;;;;;;23.10;80.20;;;;;;5007225;28;19926;-71
2021/06/04 11:23:21;;;;;;;;;;;23.40;81.60;;;;;;5069275;28;20007;-71
2021/06/04 11:25:52;;;;;;;;;;;23.90;82.80;;;;;;5091225;28;19916;-71
2021/06/04 11:28:26;;;;;;;;;;;24.00;81.70;;;;;;5089272;28;19912;-71
2021/06/04 11:30:54;;;;;;;;;;;24.30;80.00;;;;;;5087947;28;19912;-71
2021/06/04 11:33:21;;;;;;;;;;;24.80;79.60;;;;;;5092976;28;19919;-71
2021/06/04 11:35:50;;;;;;;;;;;25.20;81.40;;;;;;5088844;28;20317;-71
2021/06/04 11:38:36;;;;;;;;;;;25.20;80.30;;;;;;5090473;28;19916;-71
2021/06/04 11:41:08;;;;;;;;;;;25.20;79.20;;;;;;5064162;28;20290;-70
2021/06/04 11:43:35;;;;;;;;;;;24.70;81.30;;;;;;5081786;28;19912;-71
2021/06/04 11:46:22;;;;;;;;;;;24.80;83.90;;;;;;5078730;28;19912;-71
2021/06/04 11:48:56;;;;;;;;;;;25.30;82.50;;;;;;5086082;28;20024;-71
2021/06/04 11:51:24;;;;;;;;;;;26.10;79.20;;;;;;5081778;28;20331;-71
2021/06/04 11:53:53;;;;;;;;;;;26.60;77.30;;;;;;5097863;28;19912;-71
2021/06/04 11:56:34;;;;;;;;;;;27.00;76.90;;;;;;5090831;28;19952;-71
2021/06/04 11:58:59;;;;;;;;;;;27.20;72.20;;;;;;5087054;28;19971;-71
2021/06/04 12:01:25;;;;;;;;;;;26.60;75.70;;;;;;5093245;28;19931;-71
2021/06/04 12:03:59;;;;;;;;;;;26.80;74.30;;;;;;5079293;28;20007;-71
2021/06/04 12:06:26;;;;;;;;;;;27.50;76.30;;;;;;5081256;28;19927;-71
2021/06/04 12:08:52;;;;;;;;;;;28.20;69.50;;;;;;5082267;28;19931;-71
2021/06/04 12:11:18;;;;;;;;;;;28.10;68.10;;;;;;5090584;28;19919;-71
2021/06/04 12:13:48;;;;;;;;;;;28.20;65.30;;;;;;5078254;28;20295;-71
2021/06/04 12:16:26;;;;;;;;;;;28.40;65.10;;;;;;5084600;28;19977;-71
2021/06/04 12:18:57;;;;;;;;;;;27.80;68.40;;;;;;5080220;28;19966;-71
2021/06/04 12:21:37;;;;;;;;;;;27.60;66.90;;;;;;5079482;28;19920;-71
2021/06/04 12:24:21;;;;;;;;;;;28.40;68.60;;;;;;5080732;28;20221;-70
2021/06/04 12:26:52;;;;;;;;;;;29.80;65.10;;;;;;5098281;28;19985;-70
2021/06/04 12:29:21;;;;;;;;;;;31.10;60.30;;;;;;5098598;28;19998;-70
2021/06/04 12:31:52;;;;;;;;;;;31.50;60.50;;;;;;5099445;28;19913;-70
2021/06/04 12:34:48;;;;;;;;;;;31.60;59.50;;;;;;5097808;28;20242;-70
2021/06/04 12:37:21;;;;;;;;;;;31.50;59.10;;;;;;5079377;28;19941;-70
2021/06/04 12:39:49;;;;;;;;;;;31.10;60.00;;;;;;5078272;28;20321;-69
2021/06/04 12:42:14;;;;;;;;;;;30.20;60.60;;;;;;5093302;28;19931;-69
2021/06/04 12:44:49;;;;;;;;;;;29.60;62.20;;;;;;5097690;28;19912;-70
2021/06/04 12:47:18;;;;;;;;;;;29.20;63.80;;;;;;5092936;28;19947;-70
2021/06/04 12:49:44;;;;;;;;;;;29.10;64.50;;;;;;5096674;28;19923;-70
2021/06/04 12:52:19;;;;;;;;;;;28.30;64.90;;;;;;5087006;28;19970;-70
2021/06/04 12:54:45;;;;;;;;;;;27.70;65.90;;;;;;5096552;28;19920;-70
2021/06/04 12:57:25;;;;;;;;;;;27.30;67.80;;;;;;5080944;28;20190;-70
2021/06/04 12:59:51;;;;;;;;;;;27.30;67.90;;;;;;5084705;28;19965;-70
2021/06/04 13:02:22;;;;;;;;;;;27.00;68.00;;;;;;5100253;28;19919;-69
2021/06/04 13:04:49;;;;;;;;;;;27.00;69.40;;;;;;5095479;28;19930;-70
2021/06/04 13:07:17;;;;;;;;;;;27.00;70.20;;;;;;5093011;28;19912;-69
2021/06/04 13:09:43;;;;;;;;;;;27.20;68.10;;;;;;5082597;28;20227;-69
2021/06/04 13:12:18;;;;;;;;;;;27.20;68.60;;;;;;5077679;28;19908;-69
2021/06/04 13:14:46;;;;;;;;;;;27.40;68.40;;;;;;5080780;28;20050;-68
2021/06/04 13:17:13;;;;;;;;;;;27.60;67.90;;;;;;5093733;28;19959;-69
2021/06/04 13:19:38;;;;;;;;;;;27.70;66.00;;;;;;5094455;28;20358;-69
2021/06/04 13:22:21;;;;;;;;;;;27.70;65.00;;;;;;5095497;28;19931;-70
2021/06/04 13:24:51;;;;;;;;;;;27.90;63.90;;;;;;5095502;28;20529;-71
2021/06/04 13:27:28;;;;;;;;;;;27.90;65.30;;;;;;5080399;28;19951;-70
2021/06/04 13:29:54;;;;;;;;;;;27.90;66.30;;;;;;5084609;28;19969;-70
2021/06/04 13:32:22;;;;;;;;;;;28.00;66.00;;;;;;5097016;28;19954;-71
2021/06/04 13:34:52;;;;;;;;;;;28.60;63.50;;;;;;5097383;28;19912;-71
2021/06/04 13:37:29;;;;;;;;;;;28.90;64.00;;;;;;5088158;28;19912;-71
2021/06/04 13:39:55;;;;;;;;;;;29.60;62.10;;;;;;5076965;28;19912;-71
2021/06/04 13:42:23;;;;;;;;;;;29.60;65.80;;;;;;5091372;28;19966;-71
2021/06/04 13:44:50;;;;;;;;;;;29.60;62.70;;;;;;5095331;28;20259;-70
2021/06/04 13:47:18;;;;;;;;;;;28.70;63.90;;;;;;5072747;28;19919;-70
2021/06/04 13:49:45;;;;;;;;;;;27.80;65.80;;;;;;5093881;28;19912;-69
2021/06/04 13:52:13;;;;;;;;;;;27.00;67.20;;;;;;5094327;28;19916;-69
2021/06/04 13:54:45;;;;;;;;;;;26.20;69.50;;;;;;5086118;28;19938;-69
2021/06/04 13:57:30;;;;;;;;;;;25.80;70.10;;;;;;5092724;28;20003;-69
2021/06/04 14:00:14;;;;;;;;;;;25.60;70.90;;;;;;5093765;28;19915;-69
2021/06/04 14:02:45;;;;;;;;;;;25.50;71.90;;;;;;5088789;28;19966;-69
2021/06/04 14:05:31;;;;;;;;;;;25.20;73.20;;;;;;5091699;28;19912;-69
2021/06/04 14:08:10;;;;;;;;;;;25.00;72.80;;;;;;5101699;28;20268;-68
2021/06/04 14:10:48;;;;;;;;;;;25.10;73.80;;;;;;5093280;28;19927;-69
2021/06/04 14:13:15;;;;;;;;;;;25.10;73.80;;;;;;5094984;28;19998;-70
2021/06/04 14:15:44;;;;;;;;;;;25.20;73.20;;;;;;5088286;28;19927;-70
2021/06/04 14:18:28;;;;;;;;;;;25.10;73.10;;;;;;5091980;28;19912;-71
2021/06/04 14:20:54;;;;;;;;;;;25.10;72.90;;;;;;5087155;28;19958;-70
2021/06/04 14:23:27;;;;;;;;;;;24.90;73.90;;;;;;5091680;28;19912;-70
2021/06/04 14:26:11;;;;;;;;;;;24.80;73.80;;;;;;5095314;28;19916;-70
2021/06/04 14:28:37;;;;;;;;;;;24.70;75.20;;;;;;5079154;28;19916;-71
2021/06/04 14:31:05;;;;;;;;;;;24.40;76.10;;;;;;5092395;28;19921;-71
2021/06/04 14:33:39;;;;;;;;;;;24.50;76.30;;;;;;5093648;28;19920;-70
2021/06/04 14:36:04;;;;;;;;;;;24.30;77.50;;;;;;5100628;28;20694;-71